sensor_id;sensor_type;location;lat;lon;timestamp;temperature;humidity
20496;DHT22;10406;54.132;17.968;2022-08-24T00:03:57;19.20;99.90
20496;DHT22;10406;54.132;17.968;2022-08-24T00:09:18;19.10;99.90
20496;DHT22;10406;54.132;17.968;2022-08-24T00:14:42;19.10;99.90
20496;DHT22;10406;54.132;17.968;2022-08-24T00:20:07;19.30;99.90
20496;DHT22;10406;54.132;17.968;2022-08-24T00:25:30;19.10;99.90
20496;DHT22;10406;54.132;17.968;2022-08-24T00:30:51;19.20;99.90
20496;DHT22;10406;54.132;17.968;2022-08-24T00:36:13;19.10;99.90
20496;DHT22;10406;54.132;17.968;2022-08-24T00:41:38;19.10;99.90
20496;DHT22;10406;54.132;17.968;2022-08-24T00:47:02;19.20;99.90
20496;DHT22;10406;54.132;17.968;2022-08-24T00:52:29;19.10;99.90
20496;DHT22;10406;54.132;17.968;2022-08-24T00:57:53;19.00;99.90
20496;DHT22;10406;54.132;17.968;2022-08-24T01:03:16;18.80;99.90
20496;DHT22;10406;54.132;17.968;2022-08-24T01:08:39;18.90;99.90
20496;DHT22;10406;54.132;17.968;2022-08-24T01:14:01;18.90;99.90
20496;DHT22;10406;54.132;17.968;2022-08-24T01:19:30;18.80;99.90
20496;DHT22;10406;54.132;17.968;2022-08-24T01:24:54;18.70;99.90
20496;DHT22;10406;54.132;17.968;2022-08-24T01:30:16;18.70;99.90
20496;DHT22;10406;54.132;17.968;2022-08-24T01:35:38;18.60;99.90
20496;DHT22;10406;54.132;17.968;2022-08-24T01:41:02;18.50;99.90
20496;DHT22;10406;54.132;17.968;2022-08-24T01:46:23;18.50;99.90
20496;DHT22;10406;54.132;17.968;2022-08-24T01:51:44;18.50;99.90
20496;DHT22;10406;54.132;17.968;2022-08-24T01:57:06;18.40;99.90
20496;DHT22;10406;54.132;17.968;2022-08-24T02:02:30;18.40;99.90
20496;DHT22;10406;54.132;17.968;2022-08-24T02:07:51;18.40;99.90
20496;DHT22;10406;54.132;17.968;2022-08-24T02:13:13;18.30;99.90
20496;DHT22;10406;54.132;17.968;2022-08-24T02:18:37;18.50;99.90
20496;DHT22;10406;54.132;17.968;2022-08-24T02:23:59;18.60;99.90
20496;DHT22;10406;54.132;17.968;2022-08-24T02:29:21;18.60;99.90
20496;DHT22;10406;54.132;17.968;2022-08-24T02:34:45;18.70;99.90
20496;DHT22;10406;54.132;17.968;2022-08-24T02:40:08;18.70;99.90
20496;DHT22;10406;54.132;17.968;2022-08-24T02:45:31;18.80;99.90
20496;DHT22;10406;54.132;17.968;2022-08-24T02:51:01;18.70;99.90
20496;DHT22;10406;54.132;17.968;2022-08-24T02:56:23;18.80;99.90
20496;DHT22;10406;54.132;17.968;2022-08-24T03:01:45;19.00;99.90
20496;DHT22;10406;54.132;17.968;2022-08-24T03:07:06;18.90;99.90
20496;DHT22;10406;54.132;17.968;2022-08-24T03:12:27;19.00;99.90
20496;DHT22;10406;54.132;17.968;2022-08-24T03:17:50;19.00;99.90
20496;DHT22;10406;54.132;17.968;2022-08-24T03:23:11;19.10;99.90
20496;DHT22;10406;54.132;17.968;2022-08-24T03:28:32;19.10;99.90
20496;DHT22;10406;54.132;17.968;2022-08-24T03:33:54;19.20;99.90
20496;DHT22;10406;54.132;17.968;2022-08-24T03:39:16;19.20;99.90
20496;DHT22;10406;54.132;17.968;2022-08-24T03:44:37;19.20;99.90
20496;DHT22;10406;54.132;17.968;2022-08-24T03:49:59;19.30;99.90
20496;DHT22;10406;54.132;17.968;2022-08-24T03:55:20;19.30;99.90
20496;DHT22;10406;54.132;17.968;2022-08-24T04:00:41;19.40;99.90
20496;DHT22;10406;54.132;17.968;2022-08-24T04:06:04;19.40;99.90
20496;DHT22;10406;54.132;17.968;2022-08-24T04:11:33;19.40;99.90
20496;DHT22;10406;54.132;17.968;2022-08-24T04:16:55;19.40;99.90
20496;DHT22;10406;54.132;17.968;2022-08-24T04:22:30;19.50;99.90
20496;DHT22;10406;54.132;17.968;2022-08-24T04:28:21;19.50;99.90
20496;DHT22;10406;54.132;17.968;2022-08-24T04:34:15;19.50;99.90
20496;DHT22;10406;54.132;17.968;2022-08-24T04:39:44;19.60;99.90
20496;DHT22;10406;54.132;17.968;2022-08-24T04:45:06;19.80;99.90
20496;DHT22;10406;54.132;17.968;2022-08-24T04:50:27;19.90;99.90
20496;DHT22;10406;54.132;17.968;2022-08-24T04:55:49;19.90;99.90
20496;DHT22;10406;54.132;17.968;2022-08-24T05:01:13;20.00;99.90
20496;DHT22;10406;54.132;17.968;2022-08-24T05:06:35;19.90;99.90
20496;DHT22;10406;54.132;17.968;2022-08-24T05:11:57;20.00;99.90
20496;DHT22;10406;54.132;17.968;2022-08-24T05:17:18;20.00;99.90
20496;DHT22;10406;54.132;17.968;2022-08-24T05:22:39;20.00;99.90
20496;DHT22;10406;54.132;17.968;2022-08-24T05:28:02;20.10;99.90
20496;DHT22;10406;54.132;17.968;2022-08-24T05:33:23;20.30;99.90
20496;DHT22;10406;54.132;17.968;2022-08-24T05:38:45;20.50;99.90
20496;DHT22;10406;54.132;17.968;2022-08-24T05:44:08;20.60;99.90
20496;DHT22;10406;54.132;17.968;2022-08-24T05:49:29;20.80;99.90
20496;DHT22;10406;54.132;17.968;2022-08-24T05:54:51;20.90;99.90
20496;DHT22;10406;54.132;17.968;2022-08-24T06:00:14;21.00;99.90
20496;DHT22;10406;54.132;17.968;2022-08-24T06:05:38;20.90;99.90
20496;DHT22;10406;54.132;17.968;2022-08-24T06:10:59;21.10;99.90
20496;DHT22;10406;54.132;17.968;2022-08-24T06:16:23;21.10;99.90
20496;DHT22;10406;54.132;17.968;2022-08-24T06:21:47;21.30;99.90
20496;DHT22;10406;54.132;17.968;2022-08-24T06:32:42;21.80;99.90
20496;DHT22;10406;54.132;17.968;2022-08-24T06:38:04;22.10;99.90
20496;DHT22;10406;54.132;17.968;2022-08-24T06:43:24;22.10;99.90
20496;DHT22;10406;54.132;17.968;2022-08-24T06:48:47;22.10;99.90
20496;DHT22;10406;54.132;17.968;2022-08-24T06:54:08;22.20;99.90
20496;DHT22;10406;54.132;17.968;2022-08-24T06:59:29;22.50;99.90
20496;DHT22;10406;54.132;17.968;2022-08-24T07:04:52;22.70;99.90
20496;DHT22;10406;54.132;17.968;2022-08-24T07:10:18;22.90;99.90
20496;DHT22;10406;54.132;17.968;2022-08-24T07:15:39;22.90;99.90
20496;DHT22;10406;54.132;17.968;2022-08-24T07:21:02;22.60;99.90
20496;DHT22;10406;54.132;17.968;2022-08-24T07:26:26;22.70;99.90
20496;DHT22;10406;54.132;17.968;2022-08-24T07:31:47;22.80;99.90
20496;DHT22;10406;54.132;17.968;2022-08-24T07:37:09;22.90;99.90
20496;DHT22;10406;54.132;17.968;2022-08-24T07:42:31;23.00;99.90
20496;DHT22;10406;54.132;17.968;2022-08-24T07:47:52;23.00;99.90
20496;DHT22;10406;54.132;17.968;2022-08-24T07:53:25;22.90;99.90
20496;DHT22;10406;54.132;17.968;2022-08-24T07:58:46;23.00;99.90
20496;DHT22;10406;54.132;17.968;2022-08-24T08:04:08;23.30;99.90
20496;DHT22;10406;54.132;17.968;2022-08-24T08:09:30;24.20;99.90
20496;DHT22;10406;54.132;17.968;2022-08-24T08:14:51;25.30;99.90
20496;DHT22;10406;54.132;17.968;2022-08-24T08:20:12;25.20;99.90
20496;DHT22;10406;54.132;17.968;2022-08-24T08:25:35;25.60;99.90
20496;DHT22;10406;54.132;17.968;2022-08-24T08:30:56;25.70;99.90
20496;DHT22;10406;54.132;17.968;2022-08-24T08:36:21;25.80;99.90
20496;DHT22;10406;54.132;17.968;2022-08-24T08:42:08;25.80;99.90
20496;DHT22;10406;54.132;17.968;2022-08-24T08:59:39;25.50;99.90
20496;DHT22;10406;54.132;17.968;2022-08-24T09:11:15;25.50;99.90
20496;DHT22;10406;54.132;17.968;2022-08-24T09:17:03;25.60;99.90
20496;DHT22;10406;54.132;17.968;2022-08-24T09:22:37;25.70;99.90
20496;DHT22;10406;54.132;17.968;2022-08-24T09:28:11;26.00;99.90
20496;DHT22;10406;54.132;17.968;2022-08-24T09:33:43;26.20;99.90
20496;DHT22;10406;54.132;17.968;2022-08-24T09:39:18;26.20;99.90
20496;DHT22;10406;54.132;17.968;2022-08-24T09:57:00;25.60;99.90
20496;DHT22;10406;54.132;17.968;2022-08-24T10:02:38;25.10;99.90
20496;DHT22;10406;54.132;17.968;2022-08-24T10:08:12;25.00;99.90
20496;DHT22;10406;54.132;17.968;2022-08-24T10:13:44;25.10;99.90
20496;DHT22;10406;54.132;17.968;2022-08-24T10:19:25;25.60;99.90
20496;DHT22;10406;54.132;17.968;2022-08-24T10:25:17;26.20;99.90
20496;DHT22;10406;54.132;17.968;2022-08-24T10:31:02;26.70;99.90
20496;DHT22;10406;54.132;17.968;2022-08-24T10:36:43;27.40;99.90
20496;DHT22;10406;54.132;17.968;2022-08-24T10:42:35;27.40;99.90
20496;DHT22;10406;54.132;17.968;2022-08-24T10:49:06;26.80;99.90
20496;DHT22;10406;54.132;17.968;2022-08-24T10:54:44;26.60;99.90
20496;DHT22;10406;54.132;17.968;2022-08-24T11:00:11;26.50;99.90
20496;DHT22;10406;54.132;17.968;2022-08-24T11:05:47;26.30;99.90
20496;DHT22;10406;54.132;17.968;2022-08-24T11:11:29;26.20;99.90
20496;DHT22;10406;54.132;17.968;2022-08-24T11:17:15;26.20;99.90
20496;DHT22;10406;54.132;17.968;2022-08-24T11:23:03;26.40;99.90
20496;DHT22;10406;54.132;17.968;2022-08-24T11:28:30;26.70;99.90
20496;DHT22;10406;54.132;17.968;2022-08-24T11:34:07;26.70;99.90
20496;DHT22;10406;54.132;17.968;2022-08-24T11:39:33;26.30;99.90
20496;DHT22;10406;54.132;17.968;2022-08-24T11:45:00;26.60;99.90
20496;DHT22;10406;54.132;17.968;2022-08-24T11:50:34;26.70;99.90
20496;DHT22;10406;54.132;17.968;2022-08-24T11:56:11;26.60;99.90
20496;DHT22;10406;54.132;17.968;2022-08-24T12:01:47;26.40;99.90
20496;DHT22;10406;54.132;17.968;2022-08-24T12:07:27;26.30;99.90
20496;DHT22;10406;54.132;17.968;2022-08-24T12:12:52;26.00;99.90
20496;DHT22;10406;54.132;17.968;2022-08-24T12:18:25;26.10;99.90
20496;DHT22;10406;54.132;17.968;2022-08-24T12:23:53;26.10;99.90
20496;DHT22;10406;54.132;17.968;2022-08-24T12:29:22;26.10;99.90
20496;DHT22;10406;54.132;17.968;2022-08-24T12:35:07;26.40;99.90
20496;DHT22;10406;54.132;17.968;2022-08-24T12:40:32;26.50;99.90
20496;DHT22;10406;54.132;17.968;2022-08-24T12:45:57;26.20;99.90
20496;DHT22;10406;54.132;17.968;2022-08-24T12:51:23;26.10;99.90
20496;DHT22;10406;54.132;17.968;2022-08-24T12:57:11;26.30;99.90
20496;DHT22;10406;54.132;17.968;2022-08-24T13:02:37;26.80;99.90
20496;DHT22;10406;54.132;17.968;2022-08-24T13:08:09;27.00;99.90
20496;DHT22;10406;54.132;17.968;2022-08-24T13:14:05;26.70;99.90
20496;DHT22;10406;54.132;17.968;2022-08-24T13:19:39;26.10;99.90
20496;DHT22;10406;54.132;17.968;2022-08-24T13:31:32;26.00;99.90
20496;DHT22;10406;54.132;17.968;2022-08-24T13:37:20;26.10;99.90
20496;DHT22;10406;54.132;17.968;2022-08-24T13:43:05;26.20;99.90
20496;DHT22;10406;54.132;17.968;2022-08-24T13:48:42;26.40;99.90
20496;DHT22;10406;54.132;17.968;2022-08-24T13:54:21;26.40;99.90
20496;DHT22;10406;54.132;17.968;2022-08-24T14:00:00;26.20;99.90
20496;DHT22;10406;54.132;17.968;2022-08-24T14:05:32;26.10;99.90
20496;DHT22;10406;54.132;17.968;2022-08-24T14:11:08;26.30;99.90
20496;DHT22;10406;54.132;17.968;2022-08-24T14:16:41;26.20;99.90
20496;DHT22;10406;54.132;17.968;2022-08-24T14:22:31;26.30;99.90
20496;DHT22;10406;54.132;17.968;2022-08-24T14:33:53;26.60;99.90
20496;DHT22;10406;54.132;17.968;2022-08-24T14:39:35;26.40;99.90
20496;DHT22;10406;54.132;17.968;2022-08-24T14:45:03;25.90;99.90
20496;DHT22;10406;54.132;17.968;2022-08-24T14:50:41;25.60;99.90
20496;DHT22;10406;54.132;17.968;2022-08-24T14:56:10;25.40;99.90
20496;DHT22;10406;54.132;17.968;2022-08-24T15:01:48;25.20;99.90
20496;DHT22;10406;54.132;17.968;2022-08-24T15:07:25;25.30;99.90
20496;DHT22;10406;54.132;17.968;2022-08-24T15:12:56;25.30;99.90
20496;DHT22;10406;54.132;17.968;2022-08-24T15:18:23;25.30;99.90
20496;DHT22;10406;54.132;17.968;2022-08-24T15:24:05;25.40;99.90
20496;DHT22;10406;54.132;17.968;2022-08-24T15:29:32;26.40;99.90
20496;DHT22;10406;54.132;17.968;2022-08-24T15:34:55;27.80;99.90
20496;DHT22;10406;54.132;17.968;2022-08-24T15:40:22;28.80;99.90
20496;DHT22;10406;54.132;17.968;2022-08-24T15:45:49;29.70;99.90
20496;DHT22;10406;54.132;17.968;2022-08-24T15:51:43;30.00;99.90
20496;DHT22;10406;54.132;17.968;2022-08-24T15:57:10;27.90;99.90
20496;DHT22;10406;54.132;17.968;2022-08-24T16:02:46;26.70;99.90
20496;DHT22;10406;54.132;17.968;2022-08-24T16:08:11;25.90;99.90
20496;DHT22;10406;54.132;17.968;2022-08-24T16:13:32;25.30;99.90
20496;DHT22;10406;54.132;17.968;2022-08-24T16:18:57;24.90;99.90
20496;DHT22;10406;54.132;17.968;2022-08-24T16:30:22;24.40;99.90
20496;DHT22;10406;54.132;17.968;2022-08-24T16:35:45;24.20;99.90
20496;DHT22;10406;54.132;17.968;2022-08-24T16:41:30;23.90;99.90
20496;DHT22;10406;54.132;17.968;2022-08-24T16:46:57;23.70;99.90
20496;DHT22;10406;54.132;17.968;2022-08-24T16:52:34;23.50;99.90
20496;DHT22;10406;54.132;17.968;2022-08-24T16:58:07;23.30;99.90
20496;DHT22;10406;54.132;17.968;2022-08-24T17:03:29;23.20;99.90
20496;DHT22;10406;54.132;17.968;2022-08-24T17:08:53;23.10;99.90
20496;DHT22;10406;54.132;17.968;2022-08-24T17:14:15;23.00;99.90
20496;DHT22;10406;54.132;17.968;2022-08-24T17:19:42;23.00;99.90
20496;DHT22;10406;54.132;17.968;2022-08-24T17:25:05;22.90;99.90
20496;DHT22;10406;54.132;17.968;2022-08-24T17:30:32;22.70;99.90
20496;DHT22;10406;54.132;17.968;2022-08-24T17:35:56;22.50;99.90
20496;DHT22;10406;54.132;17.968;2022-08-24T17:41:19;22.30;99.90
20496;DHT22;10406;54.132;17.968;2022-08-24T17:46:41;22.30;99.90
20496;DHT22;10406;54.132;17.968;2022-08-24T17:52:06;22.30;99.90
20496;DHT22;10406;54.132;17.968;2022-08-24T17:57:29;22.20;99.90
20496;DHT22;10406;54.132;17.968;2022-08-24T18:02:50;21.90;99.90
20496;DHT22;10406;54.132;17.968;2022-08-24T18:08:12;21.80;99.90
20496;DHT22;10406;54.132;17.968;2022-08-24T18:13:50;21.60;99.90
20496;DHT22;10406;54.132;17.968;2022-08-24T18:19:17;21.50;99.90
20496;DHT22;10406;54.132;17.968;2022-08-24T18:24:38;21.40;99.90
20496;DHT22;10406;54.132;17.968;2022-08-24T18:30:18;21.20;99.90
20496;DHT22;10406;54.132;17.968;2022-08-24T18:35:39;21.00;99.90
20496;DHT22;10406;54.132;17.968;2022-08-24T18:41:08;21.10;99.90
20496;DHT22;10406;54.132;17.968;2022-08-24T18:46:39;21.00;99.90
20496;DHT22;10406;54.132;17.968;2022-08-24T18:52:14;20.80;99.90
20496;DHT22;10406;54.132;17.968;2022-08-24T18:57:41;20.50;99.90
20496;DHT22;10406;54.132;17.968;2022-08-24T19:03:17;20.40;99.90
20496;DHT22;10406;54.132;17.968;2022-08-24T19:08:48;20.30;99.90
20496;DHT22;10406;54.132;17.968;2022-08-24T19:14:09;20.30;99.90
20496;DHT22;10406;54.132;17.968;2022-08-24T19:19:32;20.30;99.90
20496;DHT22;10406;54.132;17.968;2022-08-24T19:24:54;20.20;99.90
20496;DHT22;10406;54.132;17.968;2022-08-24T19:30:15;20.20;99.90
20496;DHT22;10406;54.132;17.968;2022-08-24T19:35:41;20.00;99.90
20496;DHT22;10406;54.132;17.968;2022-08-24T19:41:04;20.00;99.90
20496;DHT22;10406;54.132;17.968;2022-08-24T19:46:43;20.00;99.90
20496;DHT22;10406;54.132;17.968;2022-08-24T19:52:16;20.10;99.90
20496;DHT22;10406;54.132;17.968;2022-08-24T19:57:55;20.10;99.90
20496;DHT22;10406;54.132;17.968;2022-08-24T20:03:27;20.10;99.90
20496;DHT22;10406;54.132;17.968;2022-08-24T20:08:50;20.00;99.90
20496;DHT22;10406;54.132;17.968;2022-08-24T20:14:14;20.00;99.90
20496;DHT22;10406;54.132;17.968;2022-08-24T20:19:37;19.80;99.90
20496;DHT22;10406;54.132;17.968;2022-08-24T20:24:59;19.70;99.90
20496;DHT22;10406;54.132;17.968;2022-08-24T20:30:35;19.70;99.90
20496;DHT22;10406;54.132;17.968;2022-08-24T20:36:30;19.60;99.90
20496;DHT22;10406;54.132;17.968;2022-08-24T20:41:56;19.50;99.90
20496;DHT22;10406;54.132;17.968;2022-08-24T20:47:17;19.40;99.90
20496;DHT22;10406;54.132;17.968;2022-08-24T20:52:38;19.50;99.90
20496;DHT22;10406;54.132;17.968;2022-08-24T20:58:02;19.40;99.90
20496;DHT22;10406;54.132;17.968;2022-08-24T21:08:47;19.40;99.90
20496;DHT22;10406;54.132;17.968;2022-08-24T21:14:10;19.20;99.90
20496;DHT22;10406;54.132;17.968;2022-08-24T21:19:32;19.20;99.90
20496;DHT22;10406;54.132;17.968;2022-08-24T21:24:52;19.30;99.90
20496;DHT22;10406;54.132;17.968;2022-08-24T21:30:17;19.50;99.90
20496;DHT22;10406;54.132;17.968;2022-08-24T21:35:38;19.50;99.90
20496;DHT22;10406;54.132;17.968;2022-08-24T21:40:59;19.50;99.90
20496;DHT22;10406;54.132;17.968;2022-08-24T21:46:29;19.60;99.90
20496;DHT22;10406;54.132;17.968;2022-08-24T21:51:50;19.50;99.90
20496;DHT22;10406;54.132;17.968;2022-08-24T21:57:12;19.60;99.90
20496;DHT22;10406;54.132;17.968;2022-08-24T22:02:35;19.60;99.90
20496;DHT22;10406;54.132;17.968;2022-08-24T22:07:57;19.50;99.90
20496;DHT22;10406;54.132;17.968;2022-08-24T22:13:18;19.50;99.90
20496;DHT22;10406;54.132;17.968;2022-08-24T22:18:43;19.60;99.90
20496;DHT22;10406;54.132;17.968;2022-08-24T22:24:04;19.60;99.90
20496;DHT22;10406;54.132;17.968;2022-08-24T22:29:25;19.50;99.90
20496;DHT22;10406;54.132;17.968;2022-08-24T22:34:47;19.60;99.90
20496;DHT22;10406;54.132;17.968;2022-08-24T22:40:09;19.60;99.90
20496;DHT22;10406;54.132;17.968;2022-08-24T22:45:30;19.60;99.90
20496;DHT22;10406;54.132;17.968;2022-08-24T22:50:53;19.50;99.90
20496;DHT22;10406;54.132;17.968;2022-08-24T22:56:15;19.50;99.90
20496;DHT22;10406;54.132;17.968;2022-08-24T23:01:39;19.40;99.90
20496;DHT22;10406;54.132;17.968;2022-08-24T23:07:03;19.50;99.90
20496;DHT22;10406;54.132;17.968;2022-08-24T23:12:25;19.50;99.90
20496;DHT22;10406;54.132;17.968;2022-08-24T23:17:47;19.60;99.90
20496;DHT22;10406;54.132;17.968;2022-08-24T23:23:09;19.60;99.90
20496;DHT22;10406;54.132;17.968;2022-08-24T23:28:30;19.60;99.90
20496;DHT22;10406;54.132;17.968;2022-08-24T23:33:51;19.50;99.90
20496;DHT22;10406;54.132;17.968;2022-08-24T23:39:14;19.50;99.90
20496;DHT22;10406;54.132;17.968;2022-08-24T23:44:35;19.50;99.90
20496;DHT22;10406;54.132;17.968;2022-08-24T23:49:57;19.60;99.90
20496;DHT22;10406;54.132;17.968;2022-08-24T23:55:19;19.60;99.90
